Time;durP1;ratioP1;P1;durP2;ratioP2;P2;SDS_P1;SDS_P2;PMS_P1;PMS_P2;Temp;Humidity;BMP_temperature;BMP_pressure;BME280_temperature;BME280_humidity;BME280_pressure;Samples;Min_cycle;Max_cycle;Signal;HPM_P1;HPM_P2
2022/04/10 00:00:14;;;;;;;12.25;5.30;;;8.70;99.90;;;8.89;60.82;101687.69;5075781;28;20048;-67
2022/04/10 00:02:44;;;;;;;15.60;5.18;;;8.80;99.90;;;9.05;60.59;101719.63;5075563;28;20048;-67
2022/04/10 00:05:12;;;;;;;11.63;5.68;;;8.80;99.90;;;9.05;60.25;101714.34;5075542;28;20452;-67
2022/04/10 00:07:41;;;;;;;9.23;4.90;;;8.80;99.90;;;9.10;60.06;101732.88;5075672;28;20040;-67
2022/04/10 00:10:09;;;;;;;11.57;5.30;;;8.80;99.90;;;9.00;59.95;101723.06;5075590;28;20040;-67
2022/04/10 00:12:38;;;;;;;14.70;5.47;;;8.70;99.90;;;8.91;60.48;101725.53;5075592;28;20057;-66
2022/04/10 00:15:11;;;;;;;8.70;4.57;;;8.70;99.90;;;8.82;61.74;101725.41;5075520;28;20063;-67
2022/04/10 00:17:40;;;;;;;11.13;4.90;;;8.60;99.90;;;8.63;61.99;101712.75;5075443;28;20048;-67
2022/04/10 00:20:11;;;;;;;9.65;5.20;;;8.50;99.90;;;8.59;62.74;101721.50;5075438;28;20064;-67
2022/04/10 00:22:43;;;;;;;10.60;5.22;;;8.40;99.90;;;8.37;63.24;101696.50;5075139;28;20051;-67
2022/04/10 00:25:14;;;;;;;9.18;5.40;;;8.30;99.90;;;8.47;64.07;101710.72;5057463;28;20080;-67
2022/04/10 00:27:43;;;;;;;14.52;5.25;;;8.20;99.90;;;8.29;63.27;101711.28;5057391;28;20445;-67
2022/04/10 00:30:15;;;;;;;8.90;5.07;;;8.10;99.90;;;7.66;62.97;101634.53;5074855;28;20098;-67
2022/04/10 00:32:44;;;;;;;10.27;5.85;;;7.90;99.90;;;8.07;63.59;101714.34;5074982;28;20048;-67
2022/04/10 00:35:14;;;;;;;10.02;5.13;;;7.80;99.90;;;8.04;63.99;101709.91;5075094;28;20525;-67
2022/04/10 00:37:42;;;;;;;9.15;5.90;;;7.80;99.90;;;8.05;64.90;101702.91;5075105;28;20123;-68
2022/04/10 00:40:11;;;;;;;21.50;6.22;;;7.80;99.90;;;7.97;64.78;101699.22;5073807;28;20102;-68
2022/04/10 00:42:43;;;;;;;11.15;5.75;;;7.70;99.90;;;7.97;63.77;101701.84;5075039;28;20044;-68
2022/04/10 00:45:13;;;;;;;11.27;5.35;;;7.70;99.90;;;7.93;64.03;101698.28;5075015;28;20131;-68
2022/04/10 00:47:44;;;;;;;12.80;5.78;;;7.70;99.90;;;7.92;64.55;101699.13;5074971;28;20129;-68
2022/04/10 00:50:15;;;;;;;9.93;5.68;;;7.60;99.90;;;7.93;65.08;101710.56;5074919;28;20090;-67
2022/04/10 00:52:45;;;;;;;6.65;4.90;;;7.60;99.90;;;7.88;65.81;101707.81;5074871;28;20485;-68
2022/04/10 00:55:14;;;;;;;13.95;5.80;;;7.60;99.90;;;7.90;66.19;101705.22;5074688;28;20041;-67
2022/04/10 00:57:44;;;;;;;8.38;5.80;;;7.60;99.90;;;7.76;66.38;101702.28;5073385;28;20055;-68
2022/04/10 01:00:17;;;;;;;15.17;6.00;;;7.60;99.90;;;7.67;66.18;101696.84;5074654;28;20054;-68
2022/04/10 01:02:46;;;;;;;10.05;5.35;;;7.40;99.90;;;7.64;66.32;101695.91;5073339;28;20661;-68
2022/04/10 01:05:14;;;;;;;11.57;5.45;;;7.40;99.90;;;7.71;66.60;101697.78;5074536;28;20083;-68
2022/04/10 01:07:43;;;;;;;13.93;5.82;;;7.40;99.90;;;7.72;66.66;101700.50;5074482;28;20053;-67
2022/04/10 01:10:11;;;;;;;13.18;5.45;;;7.50;99.90;;;6.96;66.83;101581.31;5074183;28;20565;-68
2022/04/10 01:12:41;;;;;;;12.88;6.72;;;7.40;99.90;;;7.65;66.86;101710.84;5074408;28;20036;-67
2022/04/10 01:15:20;;;;;;;8.15;5.72;;;7.40;99.90;;;7.67;67.01;101711.75;5055642;28;20072;-67
2022/04/10 01:17:49;;;;;;;10.45;6.18;;;7.40;99.90;;;7.70;67.79;101704.84;5073016;28;20055;-68
2022/04/10 01:20:20;;;;;;;11.03;5.33;;;7.40;99.90;;;7.64;68.75;101714.34;5072948;28;20052;-67
2022/04/10 01:22:54;;;;;;;13.63;6.07;;;7.40;99.90;;;7.65;69.06;101710.84;5072969;28;20498;-68
2022/04/10 01:25:22;;;;;;;9.60;5.65;;;7.40;99.90;;;7.62;68.78;101713.41;5056291;28;20044;-67
2022/04/10 01:27:51;;;;;;;9.40;5.45;;;7.40;99.90;;;6.96;67.92;101623.38;5072856;28;20041;-67
2022/04/10 01:30:24;;;;;;;11.00;5.57;;;7.30;99.90;;;7.49;68.25;101711.38;5056082;28;20048;-67
2022/04/10 01:32:53;;;;;;;10.27;5.85;;;7.30;99.90;;;7.56;68.40;101722.06;5074253;28;20053;-67
2022/04/10 01:35:26;;;;;;;11.68;6.25;;;7.30;99.90;;;7.58;68.31;101724.72;5055969;28;20094;-68
2022/04/10 01:37:59;;;;;;;9.00;5.32;;;7.40;99.90;;;7.61;68.68;101723.06;5072733;28;20133;-67
2022/04/10 01:40:33;;;;;;;9.63;5.68;;;7.40;99.90;;;7.55;69.28;101722.06;5073646;28;20071;-67
2022/04/10 01:43:02;;;;;;;9.23;5.45;;;7.30;99.90;;;7.48;69.21;101721.03;5072551;28;20049;-68
2022/04/10 01:45:31;;;;;;;8.93;5.10;;;7.30;99.90;;;7.48;69.33;101720.13;5072459;28;20410;-68
2022/04/10 01:48:00;;;;;;;9.68;5.82;;;7.30;99.90;;;7.48;69.88;101734.19;5073768;28;20040;-68
2022/04/10 01:50:29;;;;;;;10.27;5.60;;;7.20;99.90;;;7.43;71.47;101725.31;5072497;28;20106;-67
2022/04/10 01:52:59;;;;;;;9.45;5.95;;;7.20;99.90;;;7.42;71.68;101728.78;5055535;28;20074;-68
2022/04/10 01:55:29;;;;;;;15.52;6.03;;;7.20;99.90;;;7.42;70.34;101728.78;5072361;28;20139;-68
2022/04/10 01:57:57;;;;;;;7.13;5.57;;;7.20;99.90;;;7.42;70.10;101730.50;5055581;28;20048;-68
2022/04/10 02:00:26;;;;;;;8.50;5.70;;;7.10;99.90;;;7.33;70.13;101728.59;5055624;28;20135;-68
2022/04/10 02:02:54;;;;;;;9.52;5.55;;;7.10;99.90;;;7.30;70.19;101725.88;5055284;28;20052;-67
2022/04/10 02:05:22;;;;;;;6.68;5.80;;;7.00;99.90;;;7.12;71.06;101725.47;5073326;28;20068;-66
2022/04/10 02:07:51;;;;;;;10.07;5.43;;;6.90;99.90;;;7.22;70.22;101728.31;5073369;28;20056;-66
2022/04/10 02:10:21;;;;;;;9.30;6.15;;;6.90;99.90;;;7.26;69.80;101724.03;5074186;28;20494;-67
2022/04/10 02:12:50;;;;;;;8.50;5.55;;;7.00;99.90;;;7.26;70.63;101724.91;5075285;28;20048;-67
2022/04/10 02:15:18;;;;;;;9.00;5.45;;;7.00;99.90;;;6.98;71.39;101717.25;5076233;28;20040;-68
2022/04/10 02:17:47;;;;;;;6.95;5.03;;;6.90;99.90;;;7.08;71.14;101728.88;5072184;28;20117;-67
2022/04/10 02:20:21;;;;;;;8.95;5.60;;;6.90;99.90;;;7.18;70.94;101737.00;5071794;28;20045;-67
2022/04/10 02:22:54;;;;;;;8.25;5.55;;;6.90;99.90;;;7.29;70.86;101732.00;5055238;28;20521;-67
2022/04/10 02:25:24;;;;;;;7.68;5.50;;;7.00;99.90;;;7.18;70.96;101729.09;5055233;28;20048;-67
2022/04/10 02:27:53;;;;;;;6.47;5.68;;;6.90;99.90;;;7.25;71.92;101738.03;5072855;28;20558;-67
2022/04/10 02:30:22;;;;;;;9.52;5.63;;;7.00;99.90;;;7.32;72.36;101743.47;5054796;28;20049;-68
2022/04/10 02:32:50;;;;;;;7.90;6.05;;;7.00;99.90;;;7.32;72.58;101733.81;5071818;28;20071;-68
2022/04/10 02:35:19;;;;;;;10.77;5.63;;;7.00;99.90;;;7.25;72.09;101738.03;5073030;28;20551;-67
2022/04/10 02:37:49;;;;;;;8.10;5.65;;;7.10;99.90;;;7.21;71.12;101726.56;5055061;28;20044;-67
2022/04/10 02:40:18;;;;;;;7.53;5.40;;;7.00;99.90;;;7.25;70.11;101738.03;5071905;28;20044;-67
2022/04/10 02:42:49;;;;;;;10.45;6.32;;;7.00;99.90;;;7.24;69.81;101728.34;5055140;28;20143;-67
2022/04/10 02:45:18;;;;;;;8.65;5.25;;;7.00;99.90;;;7.29;70.69;101734.63;5071870;28;20097;-67
2022/04/10 02:47:47;;;;;;;9.52;5.85;;;7.00;99.90;;;7.30;71.40;101741.66;5055067;28;20131;-68
2022/04/10 02:50:16;;;;;;;8.60;5.75;;;7.00;99.90;;;7.18;72.07;101728.25;5055045;28;20494;-68
2022/04/10 02:52:44;;;;;;;8.80;5.55;;;7.00;99.90;;;7.26;71.83;101734.53;5054995;28;20079;-68
2022/04/10 02:55:13;;;;;;;10.15;6.85;;;7.00;99.90;;;7.17;71.93;101701.03;5071696;28;20044;-68
2022/04/10 02:57:42;;;;;;;8.55;5.40;;;7.10;99.90;;;7.26;70.35;101729.28;5054821;28;20059;-68
2022/04/10 03:00:14;;;;;;;9.50;6.10;;;7.10;99.90;;;7.22;69.60;101743.22;5054961;28;20048;-67
2022/04/10 03:02:43;;;;;;;12.57;5.85;;;6.90;99.90;;;7.28;69.41;101744.25;5071731;28;20052;-67
2022/04/10 03:05:12;;;;;;;11.20;6.07;;;7.00;99.90;;;7.32;69.95;101750.47;5072833;28;20120;-67
2022/04/10 03:07:42;;;;;;;10.77;6.73;;;7.00;99.90;;;7.32;70.03;101743.47;5054867;28;20053;-68
2022/04/10 03:10:11;;;;;;;6.38;5.68;;;7.10;99.90;;;7.35;70.29;101747.94;5071593;28;20295;-68
2022/04/10 03:12:41;;;;;;;9.85;5.90;;;7.10;99.90;;;7.41;71.07;101750.72;5071568;28;20040;-67
2022/04/10 03:15:11;;;;;;;11.30;5.78;;;7.10;99.90;;;6.91;71.32;101664.50;5071509;28;20581;-68
2022/04/10 03:17:41;;;;;;;9.38;6.30;;;7.20;99.90;;;7.52;71.15;101750.94;5071455;28;20362;-67
2022/04/10 03:20:11;;;;;;;11.05;7.00;;;7.30;99.90;;;7.53;70.56;101755.34;5072470;28;20494;-67
2022/04/10 03:22:41;;;;;;;8.52;5.85;;;7.30;99.90;;;7.57;70.36;101765.97;5071546;28;20059;-67
2022/04/10 03:25:12;;;;;;;11.35;6.35;;;7.30;99.90;;;7.48;70.33;101763.13;5071446;28;20060;-67
2022/04/10 03:27:40;;;;;;;10.10;6.88;;;7.30;99.90;;;7.46;69.95;101754.31;5072456;28;20401;-68
2022/04/10 03:30:13;;;;;;;12.32;5.97;;;7.20;99.90;;;7.52;70.60;101753.56;5054441;28;20061;-68
2022/04/10 03:32:42;;;;;;;11.82;6.13;;;7.30;99.90;;;7.58;70.45;101751.97;5071448;28;20060;-67
2022/04/10 03:35:12;;;;;;;8.13;6.20;;;7.30;99.90;;;7.58;71.12;101759.84;5071361;28;20053;-67
2022/04/10 03:37:43;;;;;;;9.55;6.10;;;7.30;99.90;;;7.57;71.43;101770.38;5072871;28;20045;-67
2022/04/10 03:40:13;;;;;;;13.27;6.93;;;7.30;99.90;;;7.59;71.18;101763.38;5058389;28;20044;-67
2022/04/10 03:42:49;;;;;;;10.40;6.43;;;7.30;99.90;;;7.59;70.86;101760.75;5074986;28;20044;-67
2022/04/10 03:45:18;;;;;;;12.05;5.82;;;7.30;99.90;;;7.62;71.05;101764.34;5058177;28;20049;-67
2022/04/10 03:47:48;;;;;;;7.90;5.78;;;7.30;99.90;;;7.69;70.58;101745.16;5075085;28;20059;-67
2022/04/10 03:50:22;;;;;;;10.38;6.28;;;7.50;99.90;;;7.86;70.59;101761.31;5058189;28;20056;-67
2022/04/10 03:52:51;;;;;;;10.15;5.72;;;7.60;99.90;;;7.92;70.41;101757.06;5074653;28;20051;-67
2022/04/10 03:55:19;;;;;;;7.22;5.75;;;7.60;99.90;;;7.82;70.61;101760.38;5058054;28;20098;-67
2022/04/10 03:57:48;;;;;;;8.02;5.60;;;7.60;99.90;;;7.88;71.05;101765.75;5057744;28;20064;-67
2022/04/10 04:00:19;;;;;;;9.55;6.70;;;7.60;99.90;;;8.03;70.44;101766.06;5075810;28;20405;-68
2022/04/10 04:02:55;;;;;;;12.45;5.85;;;7.70;99.90;;;8.12;69.93;101774.19;5074608;28;20044;-68
2022/04/10 04:05:27;;;;;;;11.05;5.82;;;7.80;99.90;;;8.12;69.14;101755.72;5074508;28;20127;-68
2022/04/10 04:07:56;;;;;;;10.30;5.95;;;7.90;99.90;;;8.16;69.39;101778.66;5074461;28;20059;-68
2022/04/10 04:10:28;;;;;;;13.75;5.97;;;7.90;99.90;;;8.25;69.48;101777.06;5057750;28;20494;-67
2022/04/10 04:12:58;;;;;;;6.23;5.10;;;8.00;99.90;;;8.25;69.38;101771.78;5074061;28;20053;-68
2022/04/10 04:15:28;;;;;;;11.45;6.13;;;8.00;99.90;;;8.23;69.37;101767.38;5074348;28;20094;-67
2022/04/10 04:17:58;;;;;;;9.90;5.85;;;8.00;99.90;;;8.22;70.63;101783.16;5074257;28;20044;-67
2022/04/10 04:20:27;;;;;;;8.38;5.15;;;8.00;99.90;;;8.23;71.09;101784.06;5074203;28;20140;-68
2022/04/10 04:22:56;;;;;;;10.38;5.93;;;8.00;99.90;;;8.05;71.42;101767.00;5075406;28;20073;-67
2022/04/10 04:25:24;;;;;;;8.88;5.72;;;7.90;99.90;;;8.11;72.07;101788.19;5074081;28;20052;-67
2022/04/10 04:27:56;;;;;;;8.85;5.95;;;7.80;99.90;;;8.11;72.39;101790.81;5057431;28;20051;-67
2022/04/10 04:30:24;;;;;;;9.38;5.95;;;7.80;99.90;;;8.15;72.00;101789.13;5075404;28;20052;-67
2022/04/10 04:32:58;;;;;;;7.57;5.80;;;7.90;99.90;;;8.03;72.72;101792.41;5074069;28;20083;-68
2022/04/10 04:35:27;;;;;;;7.53;5.97;;;7.80;99.90;;;7.92;72.42;101793.03;5073946;28;20448;-67
2022/04/10 04:37:57;;;;;;;6.32;5.72;;;7.70;99.90;;;7.91;73.10;101800.09;5057249;28;20310;-67
2022/04/10 04:40:29;;;;;;;8.25;5.35;;;7.60;99.90;;;7.87;72.94;101798.25;5075164;28;20075;-67
2022/04/10 04:42:57;;;;;;;10.40;5.90;;;7.70;99.90;;;7.87;73.26;101802.59;5074039;28;20457;-68
2022/04/10 04:45:29;;;;;;;11.50;6.18;;;7.60;99.90;;;7.79;73.82;101809.44;5073461;28;20051;-67
2022/04/10 04:48:11;;;;;;;8.27;5.82;;;7.60;99.90;;;7.77;74.19;101805.91;5057058;28;20071;-67
2022/04/10 04:50:40;;;;;;;9.52;6.05;;;7.50;99.90;;;7.83;74.66;101828.00;5073679;28;20053;-67
2022/04/10 04:53:09;;;;;;;8.13;6.03;;;7.60;99.90;;;7.88;74.36;101820.19;5056830;28;20147;-67
2022/04/10 04:55:37;;;;;;;9.35;6.53;;;7.60;99.90;;;7.87;74.38;101815.78;5073519;28;20392;-67
2022/04/10 04:58:06;;;;;;;10.65;5.53;;;7.60;99.90;;;7.79;74.40;101818.25;5073367;28;20068;-67
2022/04/10 05:00:36;;;;;;;9.70;5.97;;;7.50;99.90;;;7.70;74.18;101798.72;5074381;28;20490;-67
2022/04/10 05:03:05;;;;;;;9.65;5.78;;;7.60;99.90;;;7.76;74.32;101820.78;5073311;28;20049;-67
2022/04/10 05:05:34;;;;;;;9.02;5.68;;;7.50;99.90;;;7.77;74.60;101825.22;5072971;28;20101;-67
2022/04/10 05:08:11;;;;;;;8.93;5.90;;;7.50;99.90;;;7.88;73.96;101823.72;5073286;28;20483;-67
2022/04/10 05:10:39;;;;;;;12.82;5.82;;;7.60;99.90;;;7.97;73.75;101825.66;5073215;28;20463;-67
2022/04/10 05:13:09;;;;;;;10.60;5.93;;;7.70;99.90;;;7.92;73.57;101846.63;5056527;28;20048;-67
2022/04/10 05:15:38;;;;;;;7.13;4.97;;;7.70;99.90;;;7.98;73.65;101838.84;5056365;28;20055;-67
2022/04/10 05:18:07;;;;;;;11.35;5.43;;;7.70;99.90;;;8.15;73.14;101837.47;5056351;28;20048;-67
2022/04/10 05:20:39;;;;;;;12.13;6.13;;;7.80;99.90;;;8.15;71.73;101833.94;5056439;28;20446;-67
2022/04/10 05:23:17;;;;;;;9.93;5.70;;;7.80;99.90;;;7.26;72.30;101755.59;5073012;28;20481;-67
2022/04/10 05:25:50;;;;;;;9.13;5.68;;;7.90;99.90;;;8.07;71.97;101809.19;5073299;28;20053;-67
2022/04/10 05:28:20;;;;;;;12.65;5.95;;;7.90;99.90;;;7.89;70.80;101772.81;5056260;28;20048;-68
2022/04/10 05:30:49;;;;;;;10.05;5.35;;;8.10;99.90;;;8.29;70.56;101839.53;5055919;28;20083;-68
2022/04/10 05:33:22;;;;;;;8.75;5.25;;;8.10;99.90;;;8.37;70.86;101853.75;5072846;28;20044;-68
2022/04/10 05:35:55;;;;;;;6.65;6.00;;;8.20;99.90;;;8.43;70.92;101856.50;5074051;28;20044;-67
2022/04/10 05:38:24;;;;;;;9.57;5.90;;;8.20;99.90;;;8.41;70.74;101858.22;5073608;28;20489;-67
2022/04/10 05:40:54;;;;;;;7.45;4.95;;;8.20;99.90;;;8.51;71.02;101865.47;5072615;28;20144;-67
2022/04/10 05:43:28;;;;;;;6.97;5.68;;;8.30;99.90;;;8.57;71.56;101855.94;5072570;28;20051;-67
2022/04/10 05:45:57;;;;;;;8.18;5.40;;;8.30;99.90;;;8.49;71.68;101833.81;5072544;28;20119;-67
2022/04/10 05:48:27;;;;;;;6.15;5.22;;;8.40;99.90;;;8.64;72.26;101863.09;5072376;28;20047;-67
2022/04/10 05:50:57;;;;;;;6.68;5.65;;;8.40;99.90;;;8.66;71.97;101857.84;5056134;28;20109;-67
2022/04/10 05:53:31;;;;;;;10.80;5.28;;;8.50;99.90;;;8.89;72.55;101875.00;5072400;28;20413;-67
2022/04/10 05:56:00;;;;;;;7.20;4.85;;;8.60;99.90;;;9.08;71.07;101877.09;5055532;28;20055;-68
2022/04/10 05:58:33;;;;;;;7.60;4.72;;;8.80;99.90;;;9.31;70.95;101880.16;5055715;28;20535;-68
2022/04/10 06:01:02;;;;;;;8.82;4.97;;;8.90;99.90;;;9.45;69.53;101883.91;5071947;28;20048;-68
2022/04/10 06:03:31;;;;;;;9.68;5.20;;;9.10;99.90;;;9.60;68.74;101887.66;5072061;28;20075;-68
2022/04/10 06:06:04;;;;;;;7.85;5.25;;;9.30;99.90;;;9.47;68.40;101814.41;5055391;28;20398;-68
2022/04/10 06:08:40;;;;;;;7.05;5.07;;;9.50;99.90;;;10.24;67.45;101893.94;5073491;28;20044;-68
2022/04/10 06:11:09;;;;;;;6.50;5.03;;;9.90;99.90;;;10.59;66.37;101912.03;5072110;28;20052;-68
2022/04/10 06:13:38;;;;;;;9.02;5.38;;;10.20;99.90;;;10.77;65.76;101906.97;5055522;28;20068;-68
2022/04/10 06:16:12;;;;;;;8.63;4.90;;;10.40;99.90;;;10.88;64.66;101907.06;5071898;28;20048;-67
2022/04/10 06:18:42;;;;;;;9.68;4.43;;;10.50;99.90;;;11.00;64.96;101890.41;5071980;28;20097;-67
2022/04/10 06:21:12;;;;;;;9.68;4.50;;;10.70;99.90;;;11.34;64.02;101911.94;5072045;28;20056;-67
2022/04/10 06:23:43;;;;;;;10.45;5.38;;;10.90;99.90;;;11.52;60.34;101922.72;5071744;28;20056;-67
2022/04/10 06:26:21;;;;;;;8.05;4.63;;;11.10;99.90;;;11.61;57.82;101887.47;5055242;28;20135;-67
2022/04/10 06:28:50;;;;;;;9.15;4.22;;;11.30;99.90;;;12.00;57.51;101916.06;5071834;28;20052;-68
2022/04/10 06:31:27;;;;;;;15.40;5.25;;;11.60;99.90;;;12.23;56.87;101910.00;5071585;28;20084;-67
2022/04/10 06:33:56;;;;;;;8.75;4.82;;;11.90;99.90;;;12.29;56.75;101909.16;5071858;28;20056;-67
2022/04/10 06:36:27;;;;;;;7.35;4.78;;;12.00;99.90;;;12.42;56.82;101919.84;5055390;28;20044;-67
2022/04/10 06:38:56;;;;;;;10.98;4.72;;;12.10;99.90;;;12.45;55.95;101913.66;5071583;28;20056;-67
2022/04/10 06:41:31;;;;;;;9.15;4.90;;;12.10;99.90;;;12.00;56.02;101934.63;5073009;28;20110;-67
2022/04/10 06:44:06;;;;;;;8.27;4.55;;;11.90;99.90;;;12.01;55.55;101924.03;5071848;28;20052;-68
2022/04/10 06:46:46;;;;;;;;;;;11.80;99.90;;;11.84;55.59;101901.81;5072423;28;20049;-67
2022/04/10 06:49:22;;;;;;;9.80;4.78;;;11.80;99.90;;;12.00;55.54;101919.56;5071592;28;19970;-67
2022/04/10 06:51:53;;;;;;;12.65;4.68;;;11.80;99.90;;;11.80;54.20;101926.53;5072846;28;20394;-67
2022/04/10 06:54:29;;;;;;;11.38;5.03;;;11.70;99.90;;;11.67;53.93;101922.88;5055239;28;20060;-67
2022/04/10 06:56:57;;;;;;;5.93;4.30;;;11.50;99.90;;;12.09;54.03;101934.69;5071437;28;20052;-67
2022/04/10 06:59:26;;;;;;;10.07;4.60;;;11.80;99.90;;;12.38;53.23;101936.63;5071643;28;20071;-67
2022/04/10 07:01:55;;;;;;;14.02;5.47;;;12.10;99.90;;;12.28;52.53;101941.88;5072967;28;20060;-68
2022/04/10 07:04:24;;;;;;;9.20;4.43;;;12.10;99.90;;;12.05;51.62;101932.88;5072995;28;20040;-67
2022/04/10 07:06:54;;;;;;;10.82;4.45;;;12.10;99.90;;;12.16;52.66;101944.44;5071351;28;20052;-67
2022/04/10 07:09:22;;;;;;;11.03;4.87;;;12.00;99.90;;;11.45;52.48;101867.91;5071485;28;20135;-68
2022/04/10 07:11:56;;;;;;;7.82;4.63;;;11.80;99.90;;;11.87;52.47;101940.69;5055624;28;20052;-67
2022/04/10 07:14:48;;;;;;;10.60;4.50;;;11.80;99.90;;;11.77;52.90;101929.13;5075529;28;20044;-67
2022/04/10 07:17:17;;;;;;;10.55;4.85;;;11.70;99.90;;;11.89;52.94;101944.25;5075387;28;20054;-67
2022/04/10 07:19:51;;;;;;;13.60;4.70;;;11.70;99.90;;;11.68;52.38;101932.63;5058597;28;20040;-67
2022/04/10 07:25:08;;;;;;;9.73;5.28;;;11.70;99.90;;;11.55;51.79;101884.78;5074983;28;20076;-68
2022/04/10 07:27:38;;;;;;;10.15;4.43;;;11.80;99.90;;;12.12;50.67;101921.41;5075106;28;20044;-68
2022/04/10 07:30:21;;;;;;;9.23;5.05;;;12.10;99.90;;;12.01;50.88;101955.84;5074570;28;20441;-68
2022/04/10 07:32:54;;;;;;;8.02;4.30;;;11.90;99.90;;;12.51;50.41;101970.31;5074970;28;20055;-68
2022/04/10 07:35:26;;;;;;;10.65;4.53;;;12.30;99.90;;;12.64;49.68;101973.88;5074892;28;20122;-67
2022/04/10 07:38:11;;;;;;;6.80;4.20;;;12.40;99.90;;;12.70;49.22;101976.59;5057870;28;20052;-67
2022/04/10 07:40:41;;;;;;;10.95;4.45;;;12.50;99.90;;;12.27;49.93;101979.91;5057941;28;20143;-66
2022/04/10 07:43:14;;;;;;;9.77;4.45;;;12.20;99.90;;;12.49;49.89;101981.78;5074659;28;20052;-67
2022/04/10 07:48:42;;;;;;;10.88;4.90;;;12.50;99.90;;;12.32;50.49;101983.44;5075669;28;20040;-67
2022/04/10 07:51:13;;;;;;;10.07;4.18;;;12.30;99.90;;;12.29;51.01;101999.38;5058107;28;20067;-67
2022/04/10 07:54:01;;;;;;;9.00;4.53;;;12.20;99.90;;;12.50;50.37;101999.50;5075595;28;20106;-67
2022/04/10 07:56:30;;;;;;;8.00;4.28;;;12.40;99.90;;;12.58;50.23;101995.13;5057438;28;20056;-68
2022/04/10 07:58:59;;;;;;;8.87;4.17;;;12.40;99.90;;;12.76;47.74;102005.81;5074261;28;20490;-67
2022/04/10 08:01:36;;;;;;;11.32;4.70;;;12.60;99.90;;;12.24;48.46;101966.59;5074465;28;20056;-67
2022/04/10 08:04:09;;;;;;;9.82;4.43;;;12.30;99.90;;;12.21;49.30;102006.38;5057787;28;20044;-67
2022/04/10 08:07:07;;;;;;;8.35;4.20;;;12.10;99.90;;;12.07;48.60;102011.59;5065934;28;20053;-67
2022/04/10 08:09:36;;;;;;;7.88;4.28;;;12.00;99.90;;;11.87;47.89;102006.97;5075584;28;20097;-68
2022/04/10 08:12:05;;;;;;;12.43;4.95;;;11.80;99.90;;;11.65;48.87;102019.13;5076205;28;20049;-68
2022/04/10 08:14:34;;;;;;;7.53;4.47;;;11.60;99.90;;;11.24;49.57;102013.41;5075645;28;20056;-68
2022/04/10 08:17:03;;;;;;;11.85;5.00;;;11.20;99.90;;;11.32;50.59;102019.69;5073950;28;20520;-68
2022/04/10 08:19:31;;;;;;;7.65;4.70;;;11.20;99.90;;;11.35;50.93;102019.69;5075005;28;20047;-67
2022/04/10 08:22:00;;;;;;;8.32;4.70;;;11.10;99.90;;;11.50;50.88;102022.50;5074008;28;20056;-67
2022/04/10 08:24:28;;;;;;;9.25;4.68;;;11.20;99.90;;;11.48;50.22;102021.59;5074745;28;20044;-66
2022/04/10 08:26:59;;;;;;;8.02;4.68;;;11.20;99.90;;;11.62;49.30;102024.38;5075305;28;20040;-67
2022/04/10 08:29:27;;;;;;;9.13;4.38;;;11.50;99.90;;;11.46;48.66;102023.34;5075031;28;20051;-69
2022/04/10 08:31:56;;;;;;;6.50;4.45;;;11.40;99.90;;;11.56;48.73;102024.31;5074941;28;20072;-68
2022/04/10 08:34:24;;;;;;;7.43;4.22;;;11.40;99.90;;;11.24;48.68;102026.66;5074898;28;20068;-68
2022/04/10 08:36:53;;;;;;;9.55;4.80;;;11.20;99.90;;;11.50;49.44;102022.50;5074969;28;20397;-68
2022/04/10 08:39:21;;;;;;;6.20;4.50;;;11.30;99.90;;;11.72;49.42;102016.59;5075094;28;20094;-68
2022/04/10 08:41:51;;;;;;;10.32;4.97;;;11.60;99.90;;;11.84;47.96;102034.38;5074456;28;20059;-68
2022/04/10 08:44:22;;;;;;;11.88;4.32;;;11.70;99.90;;;11.85;47.30;102008.72;5074721;28;20040;-68
2022/04/10 08:46:51;;;;;;;8.07;4.70;;;11.80;99.90;;;12.10;46.53;102030.16;5075092;28;20052;-68
2022/04/10 08:49:21;;;;;;;9.90;4.60;;;12.00;99.90;;;12.36;46.87;102035.66;5073143;28;20083;-68
2022/04/10 08:51:52;;;;;;;8.95;4.30;;;12.20;99.90;;;12.16;46.69;102005.44;5074624;28;20040;-66
2022/04/10 08:54:21;;;;;;;7.75;4.05;;;12.20;99.90;;;12.78;46.69;102027.06;5074562;28;20466;-68
2022/04/10 08:56:50;;;;;;;6.82;4.38;;;12.50;99.90;;;12.58;46.32;102003.09;5074391;28;20049;-68
2022/04/10 08:59:21;;;;;;;10.65;4.78;;;12.60;99.90;;;12.77;46.43;102028.84;5074061;28;20089;-67
2022/04/10 09:01:53;;;;;;;8.32;4.38;;;12.60;99.90;;;12.64;46.25;102029.63;5074782;28;20044;-69
2022/04/10 09:04:23;;;;;;;7.82;4.43;;;12.60;99.90;;;12.76;46.66;102026.16;5074814;28;20052;-66
2022/04/10 09:06:58;;;;;;;6.33;5.03;;;12.60;99.90;;;12.89;45.51;102030.69;5074325;28;20040;-67
2022/04/10 09:09:27;;;;;;;7.65;4.22;;;12.70;99.90;;;12.93;45.51;102021.84;5074178;28;20358;-68
2022/04/10 09:11:56;;;;;;;6.90;4.70;;;12.80;99.90;;;13.03;44.56;101992.69;5074007;28;20044;-69
2022/04/10 09:14:28;;;;;;;8.55;4.18;;;13.00;99.90;;;12.91;44.01;102031.56;5073929;28;20064;-65
2022/04/10 09:17:16;;;;;;;8.60;4.25;;;12.90;99.90;;;13.09;44.90;102035.22;5072944;28;20106;-65
2022/04/10 09:19:46;;;;;;;6.68;4.60;;;12.90;99.90;;;13.22;46.02;102005.16;5073983;28;20457;-63
2022/04/10 09:22:27;;;;;;;8.80;4.70;;;13.20;99.90;;;13.12;45.04;102024.63;5073842;28;20045;-63
2022/04/10 09:25:18;;;;;;;9.30;4.50;;;13.10;99.90;;;13.01;44.86;102031.59;5073657;28;20051;-64
2022/04/10 09:27:48;;;;;;;10.10;4.45;;;12.90;99.90;;;13.37;46.07;102036.22;5052174;28;20152;-65
2022/04/10 09:30:20;;;;;;;9.00;4.60;;;13.10;99.90;;;13.91;44.68;102041.63;5073344;28;20045;-64
2022/04/10 09:32:50;;;;;;;6.57;4.32;;;13.70;99.90;;;14.28;43.09;102035.47;5073283;28;20079;-64
2022/04/10 09:35:21;;;;;;;6.38;3.72;;;14.10;99.90;;;14.70;42.25;102058.44;5072897;28;20044;-65
2022/04/10 09:37:51;;;;;;;8.00;4.28;;;14.50;99.90;;;15.11;42.40;102040.56;5073566;28;20075;-64
2022/04/10 09:40:25;;;;;;;6.03;4.05;;;14.90;99.90;;;15.08;42.20;102045.88;5073941;28;20120;-63
2022/04/10 09:43:05;;;;;;;6.28;3.75;;;14.90;99.90;;;14.98;39.96;102044.16;5073901;28;20086;-63
2022/04/10 09:45:38;;;;;;;5.00;4.50;;;15.00;99.90;;;14.98;40.55;102029.97;5073690;28;20045;-63
2022/04/10 09:48:21;;;;;;;6.47;3.50;;;15.00;99.90;;;15.07;40.11;102046.81;5073418;28;20067;-67
2022/04/10 09:50:51;;;;;;;9.38;4.15;;;15.00;99.90;;;15.49;39.61;102047.50;5073620;28;20520;-67
2022/04/10 09:53:22;;;;;;;6.43;3.88;;;15.30;99.90;;;15.31;39.04;102036.00;5073262;28;20048;-65
2022/04/10 09:55:54;;;;;;;3.58;3.28;;;15.30;99.90;;;15.22;37.89;102049.38;5073142;28;20384;-68
2022/04/10 09:58:25;;;;;;;5.22;3.97;;;15.10;99.90;;;15.75;37.23;102032.22;5073168;28;20462;-67
2022/04/10 10:00:56;;;;;;;5.38;3.80;;;15.60;99.90;;;16.12;36.27;102053.28;5073611;28;20106;-69
2022/04/10 10:03:33;;;;;;;5.65;3.75;;;16.00;99.90;;;16.02;36.17;102066.72;5074665;28;20120;-69
2022/04/10 10:06:01;;;;;;;6.13;3.83;;;16.00;99.90;;;16.46;36.72;102048.53;5073502;28;20111;-71
2022/04/10 10:08:30;;;;;;;4.90;3.45;;;16.30;99.90;;;16.45;36.33;102054.78;5056159;28;20067;-68
2022/04/10 10:10:59;;;;;;;7.45;3.72;;;16.40;99.90;;;16.49;36.65;101992.44;5073173;28;20516;-70
2022/04/10 10:13:28;;;;;;;7.20;4.13;;;16.70;99.90;;;17.22;36.78;102055.72;5073182;28;20398;-69
2022/04/10 10:15:59;;;;;;;8.13;3.85;;;17.00;99.90;;;17.28;36.37;102047.63;5072930;28;20102;-70
2022/04/10 10:18:27;;;;;;;5.75;3.55;;;17.20;99.90;;;16.97;37.13;102048.03;5054941;28;20489;-68
2022/04/10 10:20:56;;;;;;;10.57;4.25;;;16.90;99.90;;;16.62;36.44;102028.81;5073190;28;20098;-67
2022/04/10 10:23:26;;;;;;;6.55;3.92;;;16.70;99.90;;;16.59;37.33;102052.88;5073051;28;20036;-66
2022/04/10 10:26:10;;;;;;;7.10;3.70;;;16.50;99.90;;;16.53;36.62;102047.59;5071716;28;20052;-65
2022/04/10 10:29:19;;;;;;;5.60;3.42;;;16.50;99.90;;;16.63;37.19;102057.28;5071819;28;20040;-66
2022/04/10 10:32:05;;;;;;;8.18;4.35;;;16.50;99.90;;;16.74;37.76;102049.19;5071528;28;20125;-66
2022/04/10 10:34:34;;;;;;;8.75;4.35;;;16.60;99.90;;;16.76;38.23;102015.31;5073080;28;20064;-65
2022/04/10 10:37:04;;;;;;;5.80;3.72;;;16.80;99.90;;;16.87;37.24;102046.34;5071647;28;20048;-68
2022/04/10 10:39:33;;;;;;;6.07;3.88;;;16.80;99.90;;;16.67;38.57;102059.03;5072785;28;20414;-65